createdAt,value
2022-07-30T01:59:19.841Z,6.67
2022-07-30T02:01:53.097Z,6.97
2022-07-30T02:04:20.494Z,6.80
2022-07-30T02:07:30.394Z,7.20
2022-07-30T02:10:19.695Z,6.88
2022-07-30T02:12:53.831Z,7.43
2022-07-30T02:15:38.029Z,6.78
2022-07-30T02:18:30.937Z,7.45
2022-07-30T02:21:07.492Z,7.93
2022-07-30T02:23:45.522Z,7.55
2022-07-30T02:26:22.775Z,7.68
2022-07-30T02:28:57.000Z,7.78
2022-07-30T02:32:35.430Z,7.55
2022-07-30T02:35:15.982Z,7.70
2022-07-30T02:37:52.049Z,9.05
2022-07-30T02:40:23.564Z,7.53
2022-07-30T02:42:55.595Z,7.47
2022-07-30T02:45:30.899Z,8.27
2022-07-30T02:48:07.946Z,8.32
2022-07-30T02:50:43.218Z,7.63
2022-07-30T02:55:48.510Z,7.18
2022-07-30T02:58:26.662Z,7.70
2022-07-30T03:00:58.550Z,7.72
2022-07-30T03:03:33.004Z,7.97
2022-07-30T03:06:05.789Z,7.40
2022-07-30T03:08:38.983Z,8.13
2022-07-30T03:11:11.766Z,7.82
2022-07-30T03:13:46.126Z,6.90
2022-07-30T03:18:54.233Z,8.27
2022-07-30T03:21:30.262Z,7.47
2022-07-30T03:24:09.432Z,7.60
2022-07-30T03:26:45.866Z,7.60
2022-07-30T03:29:21.825Z,7.38
2022-07-30T03:31:54.158Z,7.82
2022-07-30T03:34:27.969Z,7.78
2022-07-30T03:37:11.996Z,8.25
2022-07-30T03:39:43.000Z,7.50
2022-07-30T03:42:11.895Z,7.45
2022-07-30T03:44:47.128Z,7.78
2022-07-30T03:47:17.791Z,7.25
2022-07-30T03:49:49.991Z,8.50
2022-07-30T03:52:23.062Z,8.20
2022-07-30T03:54:53.889Z,7.65
2022-07-30T04:01:58.071Z,7.43
2022-07-30T04:05:47.888Z,8.03
2022-07-30T04:09:32.012Z,7.85
2022-07-30T04:17:23.184Z,7.97
2022-07-30T04:37:32.722Z,7.53
2022-07-30T04:42:32.265Z,7.25
2022-07-30T04:58:52.388Z,7.22
2022-07-30T05:01:51.370Z,8.00
2022-07-30T05:04:23.260Z,7.00
2022-07-30T05:06:52.893Z,7.28
2022-07-30T05:09:27.891Z,7.15
2022-07-30T05:56:33.102Z,6.45
2022-07-30T05:59:50.151Z,7.10
2022-07-30T06:02:57.101Z,6.35
2022-07-30T06:05:36.248Z,6.18
2022-07-30T06:08:29.006Z,6.15
2022-07-30T06:11:13.034Z,5.82
2022-07-30T06:13:59.839Z,6.13
2022-07-30T06:18:02.030Z,6.40
2022-07-30T06:28:59.021Z,6.55
2022-07-30T06:31:36.990Z,6.40
2022-07-30T06:43:11.946Z,6.22
2022-07-30T06:47:47.100Z,6.43
2022-07-30T06:51:16.190Z,6.50
2022-07-30T06:53:54.222Z,6.28
2022-07-30T06:56:43.371Z,6.72
2022-07-30T06:59:30.004Z,6.43
2022-07-30T07:03:39.825Z,6.45
2022-07-30T07:06:15.245Z,6.07
2022-07-30T07:08:54.224Z,6.63
2022-07-30T07:12:38.911Z,6.53
2022-07-30T07:16:49.140Z,7.28
2022-07-30T07:20:55.105Z,7.10
2022-07-30T07:24:10.312Z,6.88
2022-07-30T07:28:12.305Z,6.95
2022-07-30T07:30:45.346Z,6.30
2022-07-30T07:33:37.657Z,6.18
2022-07-30T07:36:38.981Z,7.13
2022-07-30T07:39:23.452Z,7.15
2022-07-30T07:42:27.737Z,7.07
2022-07-30T07:45:06.571Z,6.95
2022-07-30T07:47:51.454Z,9.80
2022-07-30T07:50:50.175Z,6.90
2022-07-30T07:53:23.031Z,7.55
2022-07-30T07:55:53.227Z,7.22
2022-07-30T07:58:26.572Z,7.75
2022-07-30T08:01:15.965Z,7.00
2022-07-30T08:04:14.106Z,6.45
2022-07-30T08:07:18.410Z,7.43
2022-07-30T08:10:35.703Z,7.28
2022-07-30T08:27:39.354Z,7.47
2022-07-30T08:31:02.136Z,7.72
2022-07-30T08:41:10.533Z,8.10
2022-07-30T08:47:42.289Z,7.93
2022-07-30T08:50:27.103Z,7.55
2022-07-30T08:56:50.378Z,7.70
2022-07-30T09:07:43.264Z,7.72
2022-07-30T09:10:52.986Z,6.50
2022-07-30T09:13:53.830Z,6.40
2022-07-30T09:17:16.049Z,5.80
2022-07-30T09:21:02.410Z,6.40
2022-07-30T09:27:25.900Z,6.15
2022-07-30T09:35:26.967Z,5.85
2022-07-30T09:38:55.243Z,6.65
2022-07-30T09:42:44.751Z,7.32
2022-07-30T09:46:21.492Z,7.65
2022-07-30T09:57:23.075Z,9.05
2022-07-30T10:00:59.666Z,8.90
2022-07-30T10:04:54.333Z,8.18
2022-07-30T10:11:43.577Z,8.60
2022-07-30T10:14:52.811Z,8.32
2022-07-30T10:26:50.565Z,8.15
2022-07-30T10:34:23.555Z,7.70
2022-07-30T10:37:28.225Z,7.13
2022-07-30T10:40:31.123Z,7.68
2022-07-30T10:44:05.407Z,7.37
2022-07-30T10:47:06.899Z,7.05
2022-07-30T11:00:29.322Z,7.88
2022-07-30T11:03:41.332Z,6.18
2022-07-30T11:07:03.867Z,6.75
2022-07-30T11:10:55.599Z,6.72
2022-07-30T11:14:17.106Z,6.68
2022-07-30T11:20:43.075Z,7.20
2022-07-30T11:23:39.221Z,6.82
2022-07-30T11:58:29.222Z,5.15
2022-07-30T12:01:01.870Z,5.40
2022-07-30T12:03:41.883Z,4.68
2022-07-30T12:06:25.979Z,4.32
2022-07-30T12:08:58.494Z,4.07
2022-07-30T12:11:47.384Z,4.43
2022-07-30T12:14:42.078Z,3.90
2022-07-30T12:17:14.877Z,3.92
2022-07-30T12:19:49.490Z,4.25
2022-07-30T12:23:21.862Z,5.72
2022-07-30T12:42:28.881Z,5.15
2022-07-30T13:09:30.330Z,5.05
2022-07-30T15:41:18.103Z,2.67
2022-07-30T16:14:04.302Z,1.88
2022-07-30T16:31:53.067Z,2.03
2022-07-30T20:16:58.187Z,9.82
2022-07-30T21:02:57.952Z,8.68
2022-07-30T21:27:38.041Z,8.60
2022-07-30T21:30:24.183Z,8.45
2022-07-30T21:33:57.419Z,8.93
2022-07-30T21:38:45.137Z,8.70
2022-07-30T21:41:37.686Z,9.07
2022-07-30T21:46:50.166Z,8.20
2022-07-30T22:04:23.994Z,8.80
2022-07-30T22:07:42.538Z,9.10
2022-07-30T22:10:15.395Z,9.38
2022-07-30T22:13:00.737Z,10.23
2022-07-30T22:24:40.939Z,9.05
2022-07-30T22:33:29.711Z,9.68
2022-07-30T22:36:11.085Z,10.00
2022-07-30T22:38:58.979Z,8.73
2022-07-30T22:41:31.348Z,9.35
2022-07-30T22:44:16.012Z,9.63
2022-07-30T22:50:23.817Z,10.07
2022-07-30T22:51:00.393Z,8.88
2022-07-30T22:54:03.423Z,9.90
2022-07-30T22:56:41.713Z,9.95
2022-07-30T22:59:57.659Z,10.05
2022-07-30T23:02:34.737Z,9.38
2022-07-30T23:12:08.735Z,9.65
2022-07-30T23:24:20.430Z,9.40
2022-07-30T23:26:52.270Z,9.52
2022-07-30T23:29:43.733Z,8.52
2022-07-30T23:32:27.206Z,8.88
2022-07-30T23:35:11.371Z,9.23
2022-07-30T23:38:52.387Z,9.02
2022-07-30T23:41:45.514Z,9.85
2022-07-30T23:45:05.213Z,9.15
2022-07-30T23:48:34.154Z,9.05
2022-07-30T23:52:27.932Z,8.75
2022-07-30T23:55:03.542Z,8.55
2022-07-30T23:57:46.252Z,8.95
